LIPA Airport Information

Runway Information
Runway 05 Length 8551 ft width 144 ft
Elevation 321 ft Threshold 0 ft Heading 48
Runway 23 Length 8551 ft Width 144 ft
Elevation 410 ft Threshold 0 ft Heading 228
Airport Frequencies
Type ACP Name AMCC Frequency 264.8 MHZ
Type APP Name APP Frequency 275.325 MHZ
Type ATIS Name ATIS Frequency 262.95 MHZ
Type OPS Name SOF Frequency 262.95 MHZ
Type PMSV Name PMSV METRO Frequency 257.75 MHZ
Type POST Name COMD POST Frequency 262.95 MHZ
Type TWR Name TWR Frequency 142.05 MHZ
Airport Navaids
Type TACAN Name Aviano Frequency 116400 KHZ
Type NDB Name Aviano Frequency 390 KHZ
Airport Weather Information & NOTAM
ADDS - METARS form results

(1821 UTC 18 July 2018)
 
METAR text: LIPA 181755Z 19005KT CAVOK 29/19 Q1011 RMK SKC VIS MIN 9999 WIND THR05 20004KT WIND THR23 28006KT A2988 BLU
Conditions at: LIPA (AVIANO (IT/US-AF, IT) observed 1755 UTC 18 July 2018
Temperature: 29.0°C (84°F)
Dewpoint: 19.0°C (66°F) [RH = 55%]
Pressure (altimeter): 29.85 inches Hg (1011.0 mb)
Winds: from the S (190 degrees) at 6 MPH (5 knots; 2.6 m/s)
Visibility: 6 or more miles (10+ km)
Ceiling: ceiling and visibility are OK
Clouds: unknown
Weather: no significant weather observed at this time